sensor_id;sensor_type;location;lat;lon;timestamp;temperature;humidity
41435;DHT22;27177;22.262;114.192;2023-09-18T01:49:34;29.30;99.90
41435;DHT22;27177;22.262;114.192;2023-09-18T03:12:10;30.90;99.90
41435;DHT22;27177;22.262;114.192;2023-09-18T15:15:35;26.20;99.90
41435;DHT22;27177;22.262;114.192;2023-09-18T15:18:42;26.20;99.90
41435;DHT22;27177;22.262;114.192;2023-09-18T15:21:10;26.10;99.90
41435;DHT22;27177;22.262;114.192;2023-09-18T15:23:37;26.10;99.90
41435;DHT22;27177;22.262;114.192;2023-09-18T15:26:25;26.10;99.90
41435;DHT22;27177;22.262;114.192;2023-09-18T15:29:12;26.10;99.90
41435;DHT22;27177;22.262;114.192;2023-09-18T15:31:39;26.10;99.90
41435;DHT22;27177;22.262;114.192;2023-09-18T15:34:11;26.10;99.90
41435;DHT22;27177;22.262;114.192;2023-09-18T15:39:29;26.10;99.90
41435;DHT22;27177;22.262;114.192;2023-09-18T16:10:26;25.90;99.90
41435;DHT22;27177;22.262;114.192;2023-09-18T16:18:05;25.90;99.90
41435;DHT22;27177;22.262;114.192;2023-09-18T17:37:22;25.70;99.90
41435;DHT22;27177;22.262;114.192;2023-09-18T17:39:55;25.70;99.90
41435;DHT22;27177;22.262;114.192;2023-09-18T17:42:27;25.70;99.90
41435;DHT22;27177;22.262;114.192;2023-09-18T17:44:55;25.70;99.90
41435;DHT22;27177;22.262;114.192;2023-09-18T17:47:53;25.70;99.90
41435;DHT22;27177;22.262;114.192;2023-09-18T17:50:20;25.70;99.90
41435;DHT22;27177;22.262;114.192;2023-09-18T17:52:53;25.70;99.90
41435;DHT22;27177;22.262;114.192;2023-09-18T17:55:28;25.80;99.90
41435;DHT22;27177;22.262;114.192;2023-09-18T17:58:16;25.80;99.90
41435;DHT22;27177;22.262;114.192;2023-09-18T18:08:32;26.00;99.90
41435;DHT22;27177;22.262;114.192;2023-09-18T18:52:26;25.80;99.90
41435;DHT22;27177;22.262;114.192;2023-09-18T18:54:53;25.80;99.90
41435;DHT22;27177;22.262;114.192;2023-09-18T19:06:30;25.70;99.90
41435;DHT22;27177;22.262;114.192;2023-09-18T19:08:58;25.70;99.90
41435;DHT22;27177;22.262;114.192;2023-09-18T19:11:26;25.70;99.90
41435;DHT22;27177;22.262;114.192;2023-09-18T19:13:53;25.80;99.90
41435;DHT22;27177;22.262;114.192;2023-09-18T19:21:45;25.80;99.90
41435;DHT22;27177;22.262;114.192;2023-09-18T19:32:02;25.80;99.90
41435;DHT22;27177;22.262;114.192;2023-09-18T19:34:31;25.80;99.90
41435;DHT22;27177;22.262;114.192;2023-09-18T19:36:59;25.80;99.90
41435;DHT22;27177;22.262;114.192;2023-09-18T19:39:27;25.80;99.90
41435;DHT22;27177;22.262;114.192;2023-09-18T19:41:55;25.70;99.90
41435;DHT22;27177;22.262;114.192;2023-09-18T19:44:25;25.70;99.90
41435;DHT22;27177;22.262;114.192;2023-09-18T19:46:53;25.70;99.90
41435;DHT22;27177;22.262;114.192;2023-09-18T19:49:23;25.70;99.90
41435;DHT22;27177;22.262;114.192;2023-09-18T19:51:52;25.70;99.90
41435;DHT22;27177;22.262;114.192;2023-09-18T20:02:07;25.70;99.90
41435;DHT22;27177;22.262;114.192;2023-09-18T20:04:35;25.70;99.90
41435;DHT22;27177;22.262;114.192;2023-09-18T20:07:02;25.60;99.90
41435;DHT22;27177;22.262;114.192;2023-09-18T20:09:32;25.60;99.90
41435;DHT22;27177;22.262;114.192;2023-09-18T20:12:00;25.60;99.90
41435;DHT22;27177;22.262;114.192;2023-09-18T20:14:28;25.60;99.90
41435;DHT22;27177;22.262;114.192;2023-09-18T20:16:55;25.60;99.90
41435;DHT22;27177;22.262;114.192;2023-09-18T20:19:28;25.60;99.90
41435;DHT22;27177;22.262;114.192;2023-09-18T20:21:56;25.60;99.90
41435;DHT22;27177;22.262;114.192;2023-09-18T20:24:25;25.60;99.90
41435;DHT22;27177;22.262;114.192;2023-09-18T20:26:52;25.60;99.90
41435;DHT22;27177;22.262;114.192;2023-09-18T20:29:20;25.60;99.90
41435;DHT22;27177;22.262;114.192;2023-09-18T21:08:03;25.40;99.90
41435;DHT22;27177;22.262;114.192;2023-09-18T22:02:19;25.40;99.90
41435;DHT22;27177;22.262;114.192;2023-09-18T22:04:48;25.40;99.90
41435;DHT22;27177;22.262;114.192;2023-09-18T22:07:16;25.40;99.90
41435;DHT22;27177;22.262;114.192;2023-09-18T22:09:42;25.40;99.90
41435;DHT22;27177;22.262;114.192;2023-09-18T22:12:18;25.30;99.90
41435;DHT22;27177;22.262;114.192;2023-09-18T22:14:45;25.40;99.90
41435;DHT22;27177;22.262;114.192;2023-09-18T22:17:15;25.40;99.90
41435;DHT22;27177;22.262;114.192;2023-09-18T22:19:47;25.40;99.90
41435;DHT22;27177;22.262;114.192;2023-09-18T22:22:19;25.40;99.90
41435;DHT22;27177;22.262;114.192;2023-09-18T22:24:48;25.40;99.90
41435;DHT22;27177;22.262;114.192;2023-09-18T22:27:19;25.40;99.90
41435;DHT22;27177;22.262;114.192;2023-09-18T22:29:49;25.40;99.90
41435;DHT22;27177;22.262;114.192;2023-09-18T22:32:21;25.40;99.90
41435;DHT22;27177;22.262;114.192;2023-09-18T23:43:25;26.30;99.90
41435;DHT22;27177;22.262;114.192;2023-09-18T23:46:01;26.30;99.90
41435;DHT22;27177;22.262;114.192;2023-09-18T23:48:36;26.40;99.90
